Time;durP1;ratioP1;P1;durP2;ratioP2;P2;SDS_P1;SDS_P2;PMS_P1;PMS_P2;Temp;Humidity;BMP_temperature;BMP_pressure;BME280_temperature;BME280_humidity;BME280_pressure;Samples;Min_cycle;Max_cycle;Signal;HPM_P1;HPM_P2
2023/11/29 00:01:11;;;;;;;9.85;8.95;;;;;;;-0.36;82.31;97359.28;4978507;28;20125;-73
2023/11/29 00:03:36;;;;;;;9.00;8.20;;;;;;;-0.44;82.07;97351.50;4976731;28;20066;-72
2023/11/29 00:06:03;;;;;;;8.95;8.25;;;;;;;-0.48;81.92;97350.28;4980713;28;20046;-74
2023/11/29 00:08:29;;;;;;;9.00;8.10;;;;;;;-0.45;82.33;97338.50;4960440;28;20678;-73
2023/11/29 00:10:54;;;;;;;8.63;7.93;;;;;;;-0.62;81.82;97316.84;4984555;28;20110;-72
2023/11/29 00:13:20;;;;;;;9.20;8.30;;;;;;;-0.37;81.19;97357.66;4962482;28;20130;-72
2023/11/29 00:15:46;;;;;;;8.48;7.78;;;;;;;-0.42;81.80;97360.06;4978235;28;20474;-73
2023/11/29 00:18:12;;;;;;;8.75;7.88;;;;;;;-0.47;81.74;97346.63;4981259;28;20022;-70
2023/11/29 00:20:38;;;;;;;8.38;7.68;;;;;;;-0.60;81.58;97330.69;4963185;28;20072;-72
2023/11/29 00:23:04;;;;;;;8.30;7.60;;;;;;;-0.53;81.89;97336.00;4981803;28;20106;-72
2023/11/29 00:25:29;;;;;;;8.13;7.43;;;;;;;-0.48;81.64;97344.16;4957019;28;20078;-72
2023/11/29 00:27:55;;;;;;;8.27;7.47;;;;;;;-0.57;81.80;97325.03;4975058;28;20030;-70
2023/11/29 00:30:20;;;;;;;8.27;7.57;;;;;;;-0.49;81.24;97335.41;4966698;28;20040;-72
2023/11/29 00:32:46;;;;;;;7.90;7.30;;;;;;;-0.59;81.02;97319.13;4976715;28;20110;-72
2023/11/29 00:35:11;;;;;;;8.02;7.32;;;;;;;-0.44;80.79;97335.66;4961727;28;20034;-72
2023/11/29 00:37:36;;;;;;;7.00;6.40;;;;;;;-0.41;80.80;97324.69;4976035;28;20027;-73
2023/11/29 00:40:02;;;;;;;7.35;6.75;;;;;;;-0.39;81.10;97327.13;4963116;28;20102;-73
2023/11/29 00:42:28;;;;;;;6.65;6.15;;;;;;;-0.39;80.34;97322.66;4963957;28;20027;-73
2023/11/29 00:44:53;;;;;;;6.05;5.55;;;;;;;-0.50;80.00;97330.34;4953106;28;20117;-73
2023/11/29 00:47:19;;;;;;;6.88;6.28;;;;;;;-0.42;79.79;97323.03;4963474;28;20026;-70
2023/11/29 00:49:46;;;;;;;6.97;6.38;;;;;;;-0.35;79.76;97326.53;4961421;28;20030;-70
2023/11/29 00:52:11;;;;;;;6.75;6.15;;;;;;;-0.37;78.98;97314.50;4963637;28;20102;-71
2023/11/29 00:54:37;;;;;;;6.30;5.80;;;;;;;-0.34;79.35;97314.13;4979849;28;20137;-70
2023/11/29 00:57:02;;;;;;;7.25;6.55;;;;;;;-0.51;79.69;97297.78;4964680;28;20023;-71
2023/11/29 00:59:28;;;;;;;6.30;5.80;;;;;;;-0.61;79.30;97301.81;4982870;28;20490;-71
2023/11/29 01:01:53;;;;;;;5.95;5.45;;;;;;;-0.45;78.84;97318.16;4959486;28;20137;-71
2023/11/29 01:04:19;;;;;;;5.55;5.10;;;;;;;-0.51;78.59;97308.34;4989255;28;20093;-71
2023/11/29 01:06:45;;;;;;;5.90;5.40;;;;;;;-0.51;78.56;97297.00;4979998;28;20060;-71
2023/11/29 01:09:10;;;;;;;6.05;5.55;;;;;;;-0.47;78.40;97301.69;4983141;28;20047;-71
2023/11/29 01:11:36;;;;;;;5.70;5.10;;;;;;;-0.65;78.62;97290.00;4945412;28;20055;-69
2023/11/29 01:14:01;;;;;;;5.60;5.20;;;;;;;-0.44;77.83;97298.63;4966235;28;20034;-75
2023/11/29 01:16:27;;;;;;;5.78;5.28;;;;;;;-0.52;78.19;97290.88;4946648;28;20046;-71
2023/11/29 01:18:53;;;;;;;6.10;5.63;;;;;;;-0.63;78.60;97278.19;4985283;28;20106;-72
2023/11/29 01:21:18;;;;;;;5.07;4.57;;;;;;;-0.53;78.42;97310.38;4963623;28;20023;-71
2023/11/29 01:23:44;;;;;;;5.30;4.90;;;;;;;-0.50;77.78;97312.66;4979532;28;20038;-72
2023/11/29 01:26:09;;;;;;;4.78;4.45;;;;;;;-0.57;78.07;97313.63;4961730;28;20018;-72
2023/11/29 01:28:35;;;;;;;4.45;4.05;;;;;;;-0.61;77.11;97317.69;4947828;28;20030;-72
2023/11/29 01:31:07;;;;;;;5.07;4.68;;;;;;;-0.52;77.65;97319.13;4982862;28;20027;-72
2023/11/29 01:33:33;;;;;;;4.60;4.20;;;;;;;-0.55;77.63;97307.13;4984057;28;20125;-71
2023/11/29 01:36:10;;;;;;;4.50;4.20;;;;;;;-0.49;77.41;97314.25;4958087;28;20059;-72
2023/11/29 01:38:35;;;;;;;4.88;4.50;;;;;;;-0.43;77.01;97316.13;4947787;28;20030;-72
2023/11/29 01:41:04;;;;;;;5.18;4.78;;;;;;;-0.51;77.50;97313.66;4977030;28;20399;-75
2023/11/29 01:43:30;;;;;;;5.32;4.93;;;;;;;-0.54;77.76;97313.25;4985455;28;20027;-72
2023/11/29 01:45:56;;;;;;;4.97;4.57;;;;;;;-0.57;77.80;97303.03;4961018;28;20041;-72
2023/11/29 01:48:22;;;;;;;4.40;4.00;;;;;;;-0.73;77.75;97289.16;4962400;28;20034;-72
2023/11/29 01:50:48;;;;;;;5.30;4.90;;;;;;;-0.48;77.85;97301.88;4962478;28;20031;-72
2023/11/29 01:53:17;;;;;;;5.25;4.85;;;;;;;-0.45;76.93;97297.00;4963815;28;20035;-72
2023/11/29 01:55:46;;;;;;;5.20;4.80;;;;;;;-0.42;77.50;97293.94;4962951;28;20027;-73
2023/11/29 01:58:11;;;;;;;5.40;4.90;;;;;;;-0.45;77.37;97286.44;4965144;28;20038;-72
2023/11/29 02:00:37;;;;;;;5.78;5.28;;;;;;;-0.37;77.90;97293.34;4978743;28;20023;-71
2023/11/29 02:03:02;;;;;;;5.80;5.30;;;;;;;-0.42;77.91;97286.00;4960512;28;20062;-71
2023/11/29 02:05:28;;;;;;;6.13;5.60;;;;;;;-0.41;77.31;97292.94;4964408;28;20122;-72
2023/11/29 02:07:55;;;;;;;5.32;4.93;;;;;;;-0.44;77.57;97293.34;4978742;28;20034;-72
2023/11/29 02:10:20;;;;;;;5.35;4.88;;;;;;;-0.41;77.58;97271.78;4977141;28;20041;-73
2023/11/29 02:12:46;;;;;;;5.40;4.95;;;;;;;-0.51;77.98;97281.13;4977983;28;20091;-72
2023/11/29 02:15:12;;;;;;;5.43;5.03;;;;;;;-0.44;78.24;97287.22;4941800;28;20446;-71
2023/11/29 02:17:37;;;;;;;5.47;4.97;;;;;;;-0.50;78.38;97283.56;4980679;28;20054;-72
2023/11/29 02:20:03;;;;;;;6.10;5.60;;;;;;;-0.43;78.36;97284.41;4976389;28;20027;-71
2023/11/29 02:22:31;;;;;;;6.63;6.03;;;;;;;-0.37;78.12;97278.31;4962108;28;20031;-72
2023/11/29 02:24:56;;;;;;;6.47;5.97;;;;;;;-0.43;77.69;97284.41;4960142;28;20026;-72
2023/11/29 02:27:23;;;;;;;6.05;5.50;;;;;;;-0.40;77.96;97280.56;4977421;28;20034;-71
2023/11/29 02:29:48;;;;;;;6.70;6.10;;;;;;;-0.54;78.46;97266.47;4977361;28;20035;-71
2023/11/29 02:32:14;;;;;;;5.55;5.15;;;;;;;-0.51;78.85;97275.84;4980499;28;20466;-72
2023/11/29 02:34:39;;;;;;;6.07;5.57;;;;;;;-0.53;78.22;97268.09;4962390;28;20058;-70
2023/11/29 02:37:05;;;;;;;6.55;5.95;;;;;;;-0.61;78.92;97276.19;4983525;28;20503;-71
2023/11/29 02:39:30;;;;;;;6.03;5.53;;;;;;;-0.61;78.97;97275.38;4946104;28;20027;-70
2023/11/29 02:41:56;;;;;;;6.13;5.53;;;;;;;-0.65;78.51;97280.22;4977508;28;20467;-70
2023/11/29 02:44:23;;;;;;;6.72;6.13;;;;;;;-0.76;78.48;97262.28;4978263;28;20090;-71
2023/11/29 02:46:48;;;;;;;6.28;5.78;;;;;;;-0.78;78.60;97274.88;4978091;28;20085;-70
2023/11/29 02:49:13;;;;;;;6.55;6.03;;;;;;;-0.82;79.11;97278.94;4975409;28;20402;-73
2023/11/29 02:51:39;;;;;;;6.60;6.00;;;;;;;-0.88;78.83;97290.28;4982077;28;20115;-70
2023/11/29 02:54:04;;;;;;;7.30;6.60;;;;;;;-0.90;79.27;97287.84;4944893;28;20031;-69
2023/11/29 02:56:30;;;;;;;6.90;6.30;;;;;;;-1.02;78.74;97278.00;4982409;28;20038;-70
2023/11/29 02:58:55;;;;;;;7.25;6.65;;;;;;;-0.99;79.41;97288.19;4977111;28;20372;-68
2023/11/29 03:01:21;;;;;;;6.65;5.80;;;;;;;-1.13;79.34;97278.53;4978227;28;20038;-67
2023/11/29 03:03:46;;;;;;;6.45;5.82;;;;;;;-1.07;79.31;97285.69;4994133;23;20113;-72
2023/11/29 03:06:11;;;;;;;7.03;5.70;;;;;;;-1.22;79.72;97277.06;4988822;28;20109;-71
2023/11/29 03:08:37;;;;;;;7.95;7.25;;;;;;;-1.19;79.40;97252.91;4988869;28;20018;-71
2023/11/29 03:11:02;;;;;;;8.35;7.57;;;;;;;-1.11;79.52;97268.59;4978438;28;20490;-72
2023/11/29 03:13:28;;;;;;;8.00;7.20;;;;;;;-1.20;79.46;97262.66;4988044;28;20023;-72
2023/11/29 03:15:54;;;;;;;8.73;7.93;;;;;;;-1.22;78.87;97264.69;4987289;28;20628;-72
2023/11/29 03:18:19;;;;;;;7.63;6.90;;;;;;;-1.23;79.08;97265.69;4973585;28;20440;-73
2023/11/29 03:20:44;;;;;;;8.63;7.82;;;;;;;-1.36;79.00;97251.56;5007141;28;20476;-73
2023/11/29 03:23:11;;;;;;;6.95;6.10;;;;;;;-1.47;79.51;97261.66;4989628;28;20014;-73
2023/11/29 03:25:36;;;;;;;8.60;7.68;;;;;;;-1.72;79.41;97239.34;4970145;28;20182;-74
2023/11/29 03:28:01;;;;;;;9.75;6.57;;;;;;;-1.79;79.74;97238.47;4974599;28;20022;-72
2023/11/29 03:30:27;;;;;;;8.40;7.60;;;;;;;-1.61;79.54;97252.00;4990641;28;20045;-74
2023/11/29 03:32:52;;;;;;;7.90;6.40;;;;;;;-1.67;79.04;97249.31;4990717;28;20030;-73
2023/11/29 03:35:18;;;;;;;9.43;8.52;;;;;;;-1.61;79.55;97244.06;4982554;28;20038;-72
2023/11/29 03:37:43;;;;;;;8.88;7.75;;;;;;;-1.79;79.64;97230.53;4990242;28;20026;-71
2023/11/29 03:40:09;;;;;;;9.55;8.63;;;;;;;-1.64;79.95;97247.13;4969647;28;20064;-70
2023/11/29 03:42:34;;;;;;;9.10;8.30;;;;;;;-1.73;79.62;97227.16;4974427;28;20053;-71
2023/11/29 03:45:01;;;;;;;8.02;6.88;;;;;;;-1.89;79.99;97232.69;4974653;28;20085;-70
2023/11/29 03:47:27;;;;;;;9.20;7.13;;;;;;;-1.79;80.25;97249.00;4974675;28;20485;-72
2023/11/29 03:49:52;;;;;;;10.27;9.27;;;;;;;-1.68;79.94;97240.56;4982624;28;20037;-70
2023/11/29 03:52:19;;;;;;;9.77;8.77;;;;;;;-1.79;80.11;97238.47;4990191;28;20116;-70
2023/11/29 03:54:44;;;;;;;13.80;11.73;;;;;;;-1.68;80.51;97242.41;4973957;28;20552;-70
2023/11/29 03:57:10;;;;;;;9.70;8.00;;;;;;;-1.78;80.41;97241.91;4990842;28;20029;-70
2023/11/29 03:59:35;;;;;;;11.10;10.00;;;;;;;-1.71;80.70;97240.16;4968763;28;20513;-70
2023/11/29 04:02:01;;;;;;;12.60;11.40;;;;;;;-1.75;80.52;97234.44;4991504;28;20057;-70
2023/11/29 04:04:26;;;;;;;10.68;7.75;;;;;;;-1.92;80.42;97233.09;4983272;28;20651;-70
2023/11/29 04:06:51;;;;;;;11.75;10.55;;;;;;;-1.78;80.73;97240.09;4995811;28;20053;-72
2023/11/29 04:09:17;;;;;;;12.93;9.20;;;;;;;-1.96;80.55;97231.03;5002356;28;20405;-71
2023/11/29 04:11:46;;;;;;;11.90;8.77;;;;;;;-1.90;80.73;97252.16;4974160;28;20486;-71
2023/11/29 04:14:11;;;;;;;13.30;12.00;;;;;;;-1.88;81.46;97226.41;4980317;28;20038;-72
2023/11/29 04:16:37;;;;;;;12.30;10.20;;;;;;;-1.90;81.22;97238.97;4989976;28;20029;-70
2023/11/29 04:19:02;;;;;;;13.52;9.60;;;;;;;-1.96;81.16;97247.63;4974127;28;20080;-71
2023/11/29 04:21:33;;;;;;;14.18;10.65;;;;;;;-1.91;81.19;97232.06;4987089;28;20038;-72
2023/11/29 04:24:00;;;;;;;12.98;9.88;;;;;;;-2.02;81.46;97227.31;4974726;28;20078;-72
2023/11/29 04:26:37;;;;;;;14.75;13.35;;;;;;;-1.89;81.24;97222.13;5006432;28;20038;-73
2023/11/29 04:29:04;;;;;;;16.73;10.32;;;;;;;-1.97;81.50;97230.19;4983639;28;20041;-71
2023/11/29 04:31:30;;;;;;;16.05;14.45;;;;;;;-1.87;81.51;97235.97;4990185;28;20389;-73
2023/11/29 04:33:56;;;;;;;14.95;12.32;;;;;;;-1.93;81.36;97236.72;4990339;28;20046;-73
2023/11/29 04:36:22;;;;;;;21.30;19.02;;;;;;;-1.87;81.40;97228.06;4974533;28;20478;-73
2023/11/29 04:38:52;;;;;;;31.30;24.75;;;;;;;-1.95;81.27;97240.53;5010331;28;20129;-72
2023/11/29 04:41:21;;;;;;;32.28;22.27;;;;;;;-1.99;81.56;97231.38;4978768;28;20038;-73
2023/11/29 04:43:47;;;;;;;31.05;27.60;;;;;;;-1.97;81.76;97219.66;4977455;28;20038;-71
2023/11/29 04:46:13;;;;;;;23.50;21.10;;;;;;;-1.91;81.75;97229.41;4969520;28;20158;-71
2023/11/29 04:48:38;;;;;;;19.42;16.42;;;;;;;-1.98;81.65;97233.03;4993726;28;20030;-71
2023/11/29 04:51:04;;;;;;;20.45;15.05;;;;;;;-2.17;82.13;97221.28;4993746;28;20061;-72
2023/11/29 04:53:30;;;;;;;17.60;13.63;;;;;;;-2.08;82.13;97227.25;4984307;28;20034;-71
2023/11/29 04:55:55;;;;;;;19.27;17.27;;;;;;;-1.98;81.98;97218.00;4993632;28;20034;-71
2023/11/29 04:58:22;;;;;;;21.45;14.27;;;;;;;-2.17;82.52;97211.53;4994167;28;20034;-72
2023/11/29 05:00:48;;;;;;;18.60;14.98;;;;;;;-2.04;82.10;97210.03;4976882;28;20057;-70
2023/11/29 05:03:14;;;;;;;20.63;14.30;;;;;;;-2.11;82.36;97212.63;4988764;28;20018;-70
2023/11/29 05:05:39;;;;;;;29.60;19.92;;;;;;;-2.29;82.35;97193.78;4990343;28;20117;-70
2023/11/29 05:08:05;;;;;;;25.85;22.27;;;;;;;-2.13;82.59;97204.09;4992970;28;20101;-71
2023/11/29 05:10:31;;;;;;;26.33;22.20;;;;;;;-2.10;82.19;97219.50;4989285;28;21346;-70
2023/11/29 05:12:56;;;;;;;25.83;19.67;;;;;;;-2.19;82.18;97196.91;4992827;28;20054;-68
2023/11/29 05:15:21;;;;;;;19.17;12.50;;;;;;;-2.29;82.01;97209.63;4974278;28;20125;-69
2023/11/29 05:17:47;;;;;;;19.67;17.40;;;;;;;-2.08;82.50;97210.41;4992886;28;20054;-70
2023/11/29 05:20:13;;;;;;;22.27;19.23;;;;;;;-2.10;82.02;97203.69;4992972;28;20064;-69
2023/11/29 05:22:38;;;;;;;21.52;14.68;;;;;;;-2.12;82.32;97210.97;4992441;28;20017;-70
2023/11/29 05:25:05;;;;;;;20.95;13.13;;;;;;;-2.17;82.33;97192.28;4993118;28;20030;-69
2023/11/29 05:27:30;;;;;;;26.63;15.43;;;;;;;-2.10;82.67;97203.69;5008962;28;20584;-70
2023/11/29 05:29:55;;;;;;;28.65;17.48;;;;;;;-2.11;82.01;97196.78;4991407;28;20137;-71
2023/11/29 05:32:21;;;;;;;26.73;19.20;;;;;;;-1.97;82.14;97217.00;4995465;28;20474;-72
2023/11/29 05:34:46;;;;;;;27.27;22.60;;;;;;;-2.05;82.44;97177.56;4993398;28;20030;-72
2023/11/29 05:37:12;;;;;;;25.98;15.50;;;;;;;-2.11;82.52;97191.53;4976764;28;20030;-72
2023/11/29 05:39:37;;;;;;;21.92;19.50;;;;;;;-1.99;82.42;97194.47;4976696;28;20046;-72
2023/11/29 05:42:03;;;;;;;22.33;15.95;;;;;;;-2.17;82.22;97187.03;4994013;28;20066;-72
2023/11/29 05:44:31;;;;;;;25.08;22.38;;;;;;;-2.00;82.45;97204.19;4994366;28;20038;-73
2023/11/29 05:46:57;;;;;;;24.40;16.38;;;;;;;-2.30;82.77;97189.50;4992927;28;20030;-71
2023/11/29 05:49:23;;;;;;;22.73;18.83;;;;;;;-2.13;82.66;97190.91;4993962;28;20612;-71
2023/11/29 05:51:48;;;;;;;24.85;17.60;;;;;;;-2.37;82.32;97164.91;4984467;28;20022;-72
2023/11/29 05:54:13;;;;;;;25.50;16.67;;;;;;;-2.38;82.74;97189.66;4992352;28;21540;-71
2023/11/29 05:56:39;;;;;;;24.58;18.33;;;;;;;-2.29;82.77;97194.59;4992418;28;20034;-72
2023/11/29 05:59:05;;;;;;;30.85;18.85;;;;;;;-2.45;83.11;97173.75;4991150;28;20042;-72
2023/11/29 06:01:31;;;;;;;27.02;19.38;;;;;;;-2.35;82.95;97189.25;4990007;28;20030;-71
2023/11/29 06:03:57;;;;;;;29.27;18.40;;;;;;;-2.52;83.20;97182.63;4993754;28;20030;-71
2023/11/29 06:06:22;;;;;;;24.83;18.05;;;;;;;-2.37;83.05;97196.53;5002173;28;20441;-71
2023/11/29 06:08:48;;;;;;;25.60;21.92;;;;;;;-2.33;82.68;97197.78;4992249;28;20042;-72
2023/11/29 06:11:13;;;;;;;24.00;15.20;;;;;;;-2.70;83.07;97174.31;4986468;28;20027;-71
2023/11/29 06:13:40;;;;;;;25.50;14.98;;;;;;;-2.68;83.08;97177.59;4991504;28;20026;-73
2023/11/29 06:16:07;;;;;;;25.00;15.38;;;;;;;-2.49;83.43;97203.31;4992138;28;20022;-71
2023/11/29 06:18:32;;;;;;;27.92;16.73;;;;;;;-2.50;83.34;97196.41;4974950;28;20045;-71
2023/11/29 06:20:58;;;;;;;27.40;22.77;;;;;;;-2.27;83.17;97197.06;4975907;28;20026;-70
2023/11/29 06:23:25;;;;;;;30.80;20.67;;;;;;;-2.28;83.21;97206.78;4973365;28;20034;-71
2023/11/29 06:25:51;;;;;;;24.60;18.55;;;;;;;-2.22;83.34;97206.00;4991868;28;20088;-71
2023/11/29 06:28:16;;;;;;;28.55;16.80;;;;;;;-2.32;83.40;97204.72;4991888;28;20038;-70
2023/11/29 06:30:42;;;;;;;27.95;22.40;;;;;;;-2.08;83.04;97200.88;4990122;28;20023;-70
2023/11/29 06:33:07;;;;;;;29.25;19.27;;;;;;;-2.09;83.35;97202.69;4991242;28;20526;-70
2023/11/29 06:35:33;;;;;;;26.92;20.58;;;;;;;-2.03;83.95;97199.28;4992938;28;20057;-70
2023/11/29 06:37:59;;;;;;;27.70;17.77;;;;;;;-2.16;83.25;97193.91;4991358;28;20034;-70
2023/11/29 06:40:24;;;;;;;32.00;20.27;;;;;;;-2.10;83.29;97199.22;4993101;28;20022;-71
2023/11/29 06:42:50;;;;;;;24.60;21.83;;;;;;;-1.91;83.09;97197.75;4992983;28;20073;-70
2023/11/29 06:45:19;;;;;;;28.40;20.38;;;;;;;-1.91;83.74;97208.31;4991472;28;20394;-70
2023/11/29 06:47:48;;;;;;;29.00;20.45;;;;;;;-1.88;83.11;97193.94;4991876;28;20386;-71
2023/11/29 06:50:14;;;;;;;27.20;23.35;;;;;;;-1.69;83.44;97206.47;4975300;28;20026;-72
2023/11/29 06:52:40;;;;;;;27.40;18.33;;;;;;;-1.89;83.19;97182.56;4989271;28;20406;-70
2023/11/29 06:55:06;;;;;;;25.60;22.27;;;;;;;-1.64;83.12;97204.06;4975175;28;20026;-70
2023/11/29 06:57:31;;;;;;;28.92;18.80;;;;;;;-1.74;83.53;97193.84;4991743;28;20034;-73
2023/11/29 06:59:58;;;;;;;25.38;21.73;;;;;;;-1.64;83.06;97189.06;4991199;28;20496;-70
2023/11/29 07:02:23;;;;;;;25.58;22.20;;;;;;;-1.78;83.20;97160.94;4975350;28;20121;-70
2023/11/29 07:04:48;;;;;;;27.35;24.10;;;;;;;-1.49;83.32;97200.31;4990994;28;20022;-71
2023/11/29 07:07:15;;;;;;;28.02;18.70;;;;;;;-1.56;83.00;97207.38;4991381;28;20707;-71
2023/11/29 07:09:40;;;;;;;27.65;19.70;;;;;;;-1.54;83.25;97192.16;4992702;28;20015;-71
2023/11/29 07:12:06;;;;;;;27.90;17.55;;;;;;;-1.63;83.47;97180.13;4991361;28;20034;-71
2023/11/29 07:14:32;;;;;;;24.35;19.83;;;;;;;-1.44;83.53;97197.91;4975200;28;20117;-71
2023/11/29 07:16:57;;;;;;;26.98;22.83;;;;;;;-1.36;83.54;97183.75;4984223;28;20065;-71
2023/11/29 07:19:23;;;;;;;26.15;16.85;;;;;;;-1.51;83.67;97193.59;4991319;28;20076;-70
2023/11/29 07:21:48;;;;;;;27.23;23.35;;;;;;;-1.31;83.25;97180.53;4992445;28;20038;-70
2023/11/29 07:24:14;;;;;;;40.45;23.88;;;;;;;-1.49;83.06;97175.72;4991338;28;20026;-72
2023/11/29 07:26:39;;;;;;;70.63;49.95;;;;;;;-1.20;83.26;97190.53;5003529;28;20049;-71
2023/11/29 07:29:05;;;;;;;29.90;24.73;;;;;;;-1.16;83.09;97186.47;4975088;28;20018;-70
2023/11/29 07:31:33;;;;;;;35.05;20.50;;;;;;;-1.29;82.60;97175.84;4990771;28;20034;-71
2023/11/29 07:33:58;;;;;;;170.48;111.15;;;;;;;-1.23;82.74;97177.72;4990599;28;20023;-71
2023/11/29 07:36:24;;;;;;;41.17;31.60;;;;;;;-1.10;82.95;97177.78;4989422;28;20037;-72
2023/11/29 07:38:49;;;;;;;44.25;28.05;;;;;;;-1.05;82.60;97194.66;4974058;28;20018;-71
2023/11/29 07:41:20;;;;;;;35.67;22.48;;;;;;;-1.10;83.19;97191.00;4998116;28;20047;-71
2023/11/29 07:43:45;;;;;;;31.05;19.55;;;;;;;-0.98;83.14;97194.72;4987945;28;20109;-71
2023/11/29 07:46:11;;;;;;;28.98;23.73;;;;;;;-0.87;82.34;97187.03;4991754;28;20068;-72
2023/11/29 07:48:37;;;;;;;32.83;19.10;;;;;;;-0.99;82.96;97193.06;4990919;28;20065;-72
2023/11/29 07:51:02;;;;;;;30.02;25.98;;;;;;;-0.87;82.89;97181.75;4991860;28;20053;-72
2023/11/29 07:53:31;;;;;;;30.58;26.40;;;;;;;-0.93;82.43;97166.69;4990422;28;20042;-73
2023/11/29 07:55:56;;;;;;;31.23;22.38;;;;;;;-0.83;83.13;97204.13;5007092;28;20396;-72
2023/11/29 07:58:21;;;;;;;28.13;24.40;;;;;;;-0.75;82.32;97169.56;4990468;28;20043;-71
2023/11/29 08:00:47;;;;;;;28.17;24.17;;;;;;;-0.53;81.91;97193.22;4990810;28;20034;-72
2023/11/29 08:03:14;;;;;;;29.17;20.08;;;;;;;-0.59;82.27;97189.56;4989958;28;20101;-72
2023/11/29 08:05:41;;;;;;;29.20;24.30;;;;;;;-0.52;81.59;97171.91;4990031;28;20022;-71
2023/11/29 08:08:07;;;;;;;28.52;23.83;;;;;;;-0.47;81.94;97182.69;4990704;28;20045;-72
2023/11/29 08:10:32;;;;;;;28.05;25.00;;;;;;;-0.44;81.29;97166.41;4975645;28;20398;-73
2023/11/29 08:12:58;;;;;;;30.60;26.50;;;;;;;-0.41;82.22;97192.47;4994656;28;20527;-72
2023/11/29 08:15:23;;;;;;;33.13;21.77;;;;;;;-0.56;81.65;97178.56;4994312;28;20029;-72
2023/11/29 08:17:49;;;;;;;32.28;22.02;;;;;;;-0.51;82.08;97176.16;4994769;28;20037;-72
2023/11/29 08:20:14;;;;;;;30.15;25.95;;;;;;;-0.27;81.55;97188.81;5010970;28;20486;-72
2023/11/29 08:22:40;;;;;;;30.52;26.02;;;;;;;-0.34;81.38;97182.72;4978309;28;20039;-71
2023/11/29 08:25:06;;;;;;;31.67;25.42;;;;;;;-0.20;81.45;97188.84;4994380;28;20022;-72
2023/11/29 08:27:31;;;;;;;31.15;24.60;;;;;;;-0.17;81.65;97188.44;4978327;28;20038;-72
2023/11/29 08:29:57;;;;;;;29.05;23.63;;;;;;;-0.10;81.65;97178.69;4994391;28;20030;-72
2023/11/29 08:32:22;;;;;;;27.58;24.50;;;;;;;-0.14;81.22;97172.97;4994258;28;20031;-72
2023/11/29 08:34:47;;;;;;;27.00;23.48;;;;;;;-0.15;80.81;97166.06;4995194;28;20026;-71
2023/11/29 08:37:13;;;;;;;35.05;27.80;;;;;;;0.00;80.39;97176.44;4994278;28;20070;-71
2023/11/29 08:39:38;;;;;;;35.05;28.20;;;;;;;0.00;81.07;97163.22;5000669;28;20022;-71
2023/11/29 08:42:04;;;;;;;30.65;25.65;;;;;;;0.08;80.29;97170.94;4995474;28;20085;-71
2023/11/29 08:44:32;;;;;;;29.35;24.85;;;;;;;0.07;80.02;97157.94;4994264;28;20048;-72
2023/11/29 08:46:57;;;;;;;29.80;25.15;;;;;;;0.18;80.76;97167.88;4993967;28;20069;-73
2023/11/29 08:49:22;;;;;;;30.05;26.20;;;;;;;0.07;80.17;97153.41;4977750;28;20060;-72
2023/11/29 08:51:48;;;;;;;29.13;24.88;;;;;;;0.11;80.61;97149.38;4995386;28;20084;-71
2023/11/29 08:54:13;;;;;;;30.52;26.45;;;;;;;0.25;80.90;97163.41;5010153;28;20041;-72
2023/11/29 08:56:40;;;;;;;31.13;25.42;;;;;;;0.31;80.06;97154.63;4995070;28;20034;-71
2023/11/29 08:59:05;;;;;;;28.67;24.20;;;;;;;0.29;80.53;97154.03;4994026;28;20026;-73
2023/11/29 09:01:31;;;;;;;27.95;23.83;;;;;;;0.11;79.99;97122.09;4977817;28;20122;-72
2023/11/29 09:03:57;;;;;;;27.70;23.35;;;;;;;0.06;80.49;97124.53;4993761;28;20109;-72
2023/11/29 09:06:23;;;;;;;28.23;24.70;;;;;;;0.36;80.91;97158.31;4977336;28;20129;-71
2023/11/29 09:08:48;;;;;;;30.45;24.30;;;;;;;0.25;80.19;97119.22;4993747;28;20109;-72
2023/11/29 09:11:14;;;;;;;27.42;23.40;;;;;;;0.28;80.71;97129.38;4993737;28;20140;-72
2023/11/29 09:13:39;;;;;;;28.23;23.60;;;;;;;0.39;79.70;97135.91;4977401;28;20129;-73
2023/11/29 09:16:05;;;;;;;26.70;22.23;;;;;;;0.23;81.07;97118.63;4988437;28;20042;-71
2023/11/29 09:18:31;;;;;;;28.50;24.25;;;;;;;0.51;80.12;97142.19;4990449;28;20081;-72
2023/11/29 09:20:59;;;;;;;27.73;23.50;;;;;;;0.48;80.21;97130.19;4994719;28;20066;-72
2023/11/29 09:23:25;;;;;;;29.38;23.80;;;;;;;0.52;80.44;97130.56;4976843;28;20046;-72
2023/11/29 09:25:50;;;;;;;29.85;23.95;;;;;;;0.70;79.98;97149.28;4976865;28;20038;-72
2023/11/29 09:28:16;;;;;;;30.65;24.73;;;;;;;0.56;80.21;97137.09;4960854;28;20092;-72
2023/11/29 09:30:42;;;;;;;30.58;23.92;;;;;;;0.65;79.79;97130.56;4993547;28;20125;-72
2023/11/29 09:33:08;;;;;;;30.73;24.00;;;;;;;0.77;80.04;97136.81;4990203;28;20129;-74
2023/11/29 09:35:33;;;;;;;28.67;24.58;;;;;;;0.70;79.94;97120.16;4989615;28;20069;-72
2023/11/29 09:37:58;;;;;;;28.85;24.45;;;;;;;0.71;80.48;97132.34;4993275;28;20525;-72
2023/11/29 09:40:24;;;;;;;29.10;24.40;;;;;;;0.90;79.71;97131.47;4995766;28;20121;-73
2023/11/29 09:42:52;;;;;;;32.05;25.27;;;;;;;0.84;80.50;97127.00;4976942;28;20034;-71
2023/11/29 09:45:22;;;;;;;33.72;27.55;;;;;;;1.04;80.73;97141.00;4989964;28;20036;-72
2023/11/29 09:47:47;;;;;;;32.90;26.45;;;;;;;1.00;81.34;97134.50;4985752;28;20042;-72
2023/11/29 09:50:13;;;;;;;33.58;26.67;;;;;;;0.90;80.62;97118.22;4976859;28;20037;-72
2023/11/29 09:52:39;;;;;;;33.17;27.13;;;;;;;0.87;81.12;97108.03;4992775;28;20109;-72
2023/11/29 09:55:05;;;;;;;32.67;26.38;;;;;;;1.03;80.70;97120.00;4992652;28;20029;-72
2023/11/29 09:57:30;;;;;;;32.33;27.38;;;;;;;0.99;80.87;97110.84;4994099;28;20038;-72
2023/11/29 09:59:56;;;;;;;33.60;27.60;;;;;;;1.06;81.31;97101.84;4994682;28;20114;-72
2023/11/29 10:02:22;;;;;;;31.35;26.33;;;;;;;1.24;80.89;97119.69;4961516;28;20385;-73
2023/11/29 10:04:47;;;;;;;32.78;27.00;;;;;;;1.21;80.72;97115.63;4983743;28;20026;-72
2023/11/29 10:07:13;;;;;;;30.55;25.17;;;;;;;1.09;81.19;97101.44;4976578;28;20046;-73
2023/11/29 10:09:38;;;;;;;32.20;25.77;;;;;;;1.12;80.79;97106.28;4992682;28;20389;-72
2023/11/29 10:12:10;;;;;;;30.73;24.95;;;;;;;1.27;80.11;97109.47;4976286;28;20030;-72
2023/11/29 10:14:40;;;;;;;31.02;26.20;;;;;;;1.33;80.43;97113.13;4992958;28;20100;-72
2023/11/29 10:17:07;;;;;;;28.30;23.40;;;;;;;1.21;81.18;97098.91;4992169;28;20038;-72
2023/11/29 10:19:33;;;;;;;30.40;25.15;;;;;;;1.15;80.87;97105.88;4993765;28;20030;-72
2023/11/29 10:22:01;;;;;;;31.25;26.25;;;;;;;1.05;81.36;97104.72;4992302;28;20030;-72
2023/11/29 10:24:27;;;;;;;35.45;28.33;;;;;;;0.86;82.04;97089.72;4992331;28;20155;-73
2023/11/29 10:26:53;;;;;;;41.97;30.50;;;;;;;0.97;82.01;97095.16;4992110;28;20042;-72
2023/11/29 10:29:18;;;;;;;46.33;33.03;;;;;;;0.97;82.68;97095.16;4992447;28;20028;-72
2023/11/29 10:31:46;;;;;;;43.88;32.03;;;;;;;1.05;82.13;97084.28;4958002;28;20405;-72
2023/11/29 10:34:14;;;;;;;46.97;30.85;;;;;;;1.02;81.92;97074.13;4991135;28;20109;-73
2023/11/29 10:36:40;;;;;;;43.55;31.95;;;;;;;1.07;81.65;97071.69;4975366;28;20080;-73
2023/11/29 10:39:08;;;;;;;40.33;30.27;;;;;;;1.04;81.92;97060.66;4992486;28;20117;-72
2023/11/29 10:41:38;;;;;;;46.75;32.92;;;;;;;1.25;82.42;97085.03;4991512;28;20049;-72
2023/11/29 10:44:05;;;;;;;38.58;29.50;;;;;;;1.28;81.90;97086.44;4991618;28;20076;-73
2023/11/29 10:46:32;;;;;;;40.47;30.30;;;;;;;1.30;81.36;97087.84;4991349;28;20030;-73
2023/11/29 10:49:18;;;;;;;34.50;28.25;;;;;;;1.30;81.22;97082.56;4991608;28;20117;-73
2023/11/29 10:51:45;;;;;;;34.22;28.13;;;;;;;1.13;82.66;97070.81;4990008;28;20038;-73
2023/11/29 10:54:11;;;;;;;39.58;28.50;;;;;;;1.26;82.63;97081.31;4989253;28;20046;-71
2023/11/29 10:56:37;;;;;;;32.90;27.83;;;;;;;1.15;81.84;97071.41;4972732;28;20041;-72
2023/11/29 10:59:34;;;;;;;33.33;26.38;;;;;;;1.16;81.56;97078.34;4975014;28;20053;-72
2023/11/29 11:02:00;;;;;;;32.00;25.45;;;;;;;1.19;82.44;97075.25;4985233;28;20046;-72
2023/11/29 11:04:33;;;;;;;31.55;25.65;;;;;;;1.23;81.76;97068.53;4992741;28;20037;-72
2023/11/29 11:07:00;;;;;;;33.53;25.83;;;;;;;1.23;81.95;97059.75;4990996;28;20040;-72
2023/11/29 11:09:40;;;;;;;32.58;26.25;;;;;;;1.23;82.59;97060.56;4967073;28;20441;-72
2023/11/29 11:12:07;;;;;;;32.55;25.05;;;;;;;1.07;82.12;97039.88;4986765;28;20212;-73
2023/11/29 11:14:41;;;;;;;33.22;26.90;;;;;;;1.18;82.57;97057.72;4975112;28;20080;-72
2023/11/29 11:17:09;;;;;;;33.35;27.13;;;;;;;1.15;83.04;97063.44;4992058;28;20493;-71
2023/11/29 11:19:38;;;;;;;32.88;26.13;;;;;;;1.15;83.27;97052.84;4991008;28;20022;-72